createdAt,value
2018-07-14T00:03:10.528Z,10.33
2018-07-14T00:06:43.808Z,12.70
2018-07-14T00:10:17.041Z,10.37
2018-07-14T00:13:50.295Z,12.30
2018-07-14T00:17:23.540Z,9.87
2018-07-14T00:20:56.795Z,11.80
2018-07-14T00:24:30.127Z,10.57
2018-07-14T00:28:03.304Z,12.53
2018-07-14T00:31:36.548Z,11.23
2018-07-14T00:35:09.807Z,12.40
2018-07-14T00:38:43.040Z,12.50
2018-07-14T00:42:16.307Z,12.10
2018-07-14T00:45:49.637Z,11.90
2018-07-14T00:49:22.897Z,13.60
2018-07-14T00:52:56.148Z,13.17
2018-07-14T00:56:29.396Z,15.20
2018-07-14T01:00:02.631Z,14.07
2018-07-14T01:03:35.861Z,15.10
2018-07-14T01:07:09.107Z,13.20
2018-07-14T01:10:42.339Z,15.87
2018-07-14T01:14:15.598Z,17.20
2018-07-14T01:17:48.866Z,15.73
2018-07-14T01:21:22.084Z,16.80
2018-07-14T01:24:55.324Z,16.70
2018-07-14T01:28:28.556Z,18.07
2018-07-14T01:32:01.800Z,17.30
2018-07-14T01:35:35.034Z,15.80
2018-07-14T01:39:09.000Z,17.50
2018-07-14T01:42:42.235Z,17.13
2018-07-14T01:46:15.477Z,16.20
2018-07-14T01:49:48.479Z,17.30
2018-07-14T01:53:21.453Z,18.50
2018-07-14T01:56:54.700Z,19.53
2018-07-14T02:00:27.940Z,16.23
2018-07-14T02:04:01.184Z,16.87
2018-07-14T02:07:34.415Z,17.80
2018-07-14T02:11:07.679Z,18.30
2018-07-14T02:14:40.968Z,17.20
2018-07-14T02:18:14.212Z,16.83
2018-07-14T02:21:47.459Z,18.30
2018-07-14T02:25:21.087Z,18.20
2018-07-14T02:28:54.788Z,15.97
2018-07-14T02:32:27.780Z,19.37
2018-07-14T02:36:01.027Z,18.37
2018-07-14T02:39:34.277Z,17.23
2018-07-14T02:43:07.255Z,16.40
2018-07-14T02:46:40.520Z,17.47
2018-07-14T02:50:13.747Z,17.73
2018-07-14T02:53:47.015Z,15.93
2018-07-14T02:57:20.259Z,15.27
2018-07-14T03:00:53.493Z,17.03
2018-07-14T03:04:26.736Z,16.23
2018-07-14T03:07:59.992Z,16.50
2018-07-14T03:11:33.217Z,15.13
2018-07-14T03:15:06.505Z,16.83
2018-07-14T03:18:39.751Z,16.07
2018-07-14T03:22:13.017Z,15.60
2018-07-14T03:25:46.263Z,16.23
2018-07-14T03:29:19.508Z,16.70
2018-07-14T03:32:52.774Z,16.40
2018-07-14T03:36:25.999Z,16.13
2018-07-14T03:39:59.254Z,16.27
2018-07-14T03:43:32.499Z,16.50
2018-07-14T03:47:05.992Z,16.97
2018-07-14T03:50:39.228Z,15.27
2018-07-14T03:54:12.487Z,16.63
2018-07-14T03:57:45.493Z,18.30
2018-07-14T04:01:18.751Z,17.40
2018-07-14T04:04:51.987Z,15.90
2018-07-14T04:08:25.230Z,16.07
2018-07-14T04:11:58.459Z,17.80
2018-07-14T04:15:31.719Z,16.30
2018-07-14T04:19:04.965Z,15.47
2018-07-14T04:22:38.201Z,20.03
2018-07-14T04:26:11.436Z,16.20
2018-07-14T04:29:44.688Z,15.30
2018-07-14T04:33:17.940Z,14.30
2018-07-14T04:36:51.513Z,16.33
2018-07-14T04:40:24.741Z,13.80
2018-07-14T04:43:57.981Z,13.53
2018-07-14T04:47:30.977Z,16.47
2018-07-14T04:51:04.536Z,15.60
2018-07-14T04:54:37.779Z,15.77
2018-07-14T04:58:10.788Z,15.30
2018-07-14T05:01:44.013Z,15.97
2018-07-14T05:05:17.259Z,14.13
2018-07-14T05:08:50.499Z,16.10
2018-07-14T05:12:23.754Z,15.67
2018-07-14T05:15:56.980Z,15.60
2018-07-14T05:19:30.237Z,16.30
2018-07-14T05:23:03.504Z,16.13
2018-07-14T05:26:36.757Z,15.50
2018-07-14T05:30:09.993Z,15.10
2018-07-14T05:33:43.248Z,14.03
2018-07-14T05:37:16.507Z,15.93
2018-07-14T05:40:49.804Z,14.03
2018-07-14T05:44:23.033Z,13.27
2018-07-14T05:47:56.275Z,13.00
2018-07-14T05:51:29.288Z,13.23
2018-07-14T05:55:02.527Z,11.30
2018-07-14T05:58:35.771Z,12.10
2018-07-14T06:02:09.048Z,13.30
2018-07-14T06:05:42.277Z,14.10
2018-07-14T06:09:15.533Z,12.70
2018-07-14T06:12:48.779Z,13.60
2018-07-14T06:16:22.032Z,13.27
2018-07-14T06:19:55.264Z,12.10
2018-07-14T06:23:28.527Z,13.03
2018-07-14T06:27:01.828Z,13.03
2018-07-14T06:30:35.076Z,14.60
2018-07-14T06:34:08.299Z,12.33
2018-07-14T06:37:41.539Z,13.03
2018-07-14T06:41:14.787Z,12.57
2018-07-14T06:44:48.034Z,14.20
2018-07-14T06:48:21.280Z,13.13
2018-07-14T06:51:54.519Z,12.60
2018-07-14T06:55:27.768Z,12.00
2018-07-14T06:59:00.997Z,13.03
2018-07-14T07:02:34.251Z,12.33
2018-07-14T07:06:07.280Z,13.17
2018-07-14T07:09:40.575Z,12.87
2018-07-14T07:13:13.820Z,14.07
2018-07-14T07:16:47.069Z,13.70
2018-07-14T07:20:20.316Z,16.57
2018-07-14T07:23:53.549Z,13.03
2018-07-14T07:27:26.788Z,12.33
2018-07-14T07:31:00.060Z,13.13
2018-07-14T07:34:33.330Z,14.50
2018-07-14T07:38:06.573Z,12.40
2018-07-14T07:41:39.808Z,12.73
2018-07-14T07:45:13.092Z,12.07
2018-07-14T07:48:46.332Z,12.73
2018-07-14T07:52:19.578Z,10.87
2018-07-14T07:55:52.824Z,12.73
2018-07-14T07:59:26.072Z,12.77
2018-07-14T08:02:59.305Z,11.63
2018-07-14T08:06:32.592Z,11.10
2018-07-14T08:10:05.840Z,11.50
2018-07-14T08:13:39.106Z,10.90
2018-07-14T08:17:12.357Z,10.70
2018-07-14T08:20:45.588Z,10.77
2018-07-14T08:24:18.848Z,9.57
2018-07-14T08:27:52.093Z,11.37
2018-07-14T08:31:25.346Z,10.00
2018-07-14T08:34:58.625Z,10.50
2018-07-14T08:38:31.891Z,11.57
2018-07-14T08:42:06.012Z,10.90
2018-07-14T08:45:39.266Z,10.90
2018-07-14T08:49:13.414Z,10.97
2018-07-14T08:52:46.687Z,10.30
2018-07-14T08:56:19.920Z,10.40
2018-07-14T08:59:53.167Z,10.57
2018-07-14T09:03:26.489Z,9.60
2018-07-14T09:06:59.724Z,11.37
2018-07-14T09:10:32.971Z,11.63
2018-07-14T09:14:06.256Z,10.43
2018-07-14T09:17:39.516Z,9.77
2018-07-14T09:21:12.768Z,9.60
2018-07-14T09:24:46.021Z,9.83
2018-07-14T09:28:19.272Z,9.20
2018-07-14T09:31:52.500Z,10.30
2018-07-14T09:35:25.773Z,9.37
2018-07-14T09:38:59.022Z,9.63
2018-07-14T09:42:32.252Z,9.20
2018-07-14T09:46:05.505Z,9.53
2018-07-14T09:49:38.773Z,9.40
2018-07-14T09:53:12.016Z,9.33
2018-07-14T09:56:45.243Z,8.20
2018-07-14T10:00:23.929Z,9.33
2018-07-14T10:03:57.180Z,11.10
2018-07-14T10:07:30.396Z,8.90
2018-07-14T10:11:03.641Z,8.67
2018-07-14T10:14:36.889Z,8.80
2018-07-14T10:18:10.136Z,7.93
2018-07-14T10:21:43.372Z,8.40
2018-07-14T10:25:16.846Z,6.80
2018-07-14T10:28:49.879Z,6.90
2018-07-14T10:32:23.131Z,7.30
2018-07-14T10:35:56.493Z,7.50
2018-07-14T10:39:29.788Z,5.53
2018-07-14T10:43:03.052Z,5.30
2018-07-14T10:46:36.347Z,4.87
2018-07-14T10:50:09.584Z,6.70
2018-07-14T10:53:42.900Z,5.23
2018-07-14T10:57:16.128Z,4.67
2018-07-14T11:00:49.376Z,4.60
2018-07-14T11:04:22.639Z,4.93
2018-07-14T11:07:55.598Z,6.50
2018-07-14T11:11:28.826Z,5.70
2018-07-14T11:15:02.079Z,8.60
2018-07-14T11:18:35.330Z,6.10
2018-07-14T11:22:08.573Z,5.77
2018-07-14T11:25:41.839Z,6.27
2018-07-14T11:29:15.108Z,7.40
2018-07-14T11:32:48.380Z,7.10
2018-07-14T11:36:21.645Z,8.50
2018-07-14T11:39:54.895Z,7.90
2018-07-14T11:43:28.190Z,8.00
2018-07-14T11:47:01.480Z,7.90
2018-07-14T11:50:34.709Z,7.87
2018-07-14T11:54:07.988Z,6.20
2018-07-14T11:57:41.253Z,7.77
2018-07-14T12:01:14.505Z,7.10
2018-07-14T12:04:47.760Z,8.20
2018-07-14T12:08:21.023Z,6.80
2018-07-14T12:11:54.297Z,6.77
2018-07-14T12:15:27.582Z,6.83
2018-07-14T12:19:01.056Z,7.70
2018-07-14T12:22:34.311Z,6.07
2018-07-14T12:26:07.572Z,6.87
2018-07-14T12:29:40.904Z,6.70
2018-07-14T12:33:14.163Z,6.60
2018-07-14T12:36:47.479Z,7.23
2018-07-14T12:40:20.676Z,7.23
2018-07-14T12:43:53.917Z,6.70
2018-07-14T12:47:27.163Z,7.63
2018-07-14T12:51:00.431Z,6.97
2018-07-14T12:54:33.663Z,7.87
2018-07-14T12:58:07.084Z,7.30
2018-07-14T13:01:40.394Z,7.50
2018-07-14T13:05:13.644Z,10.43
2018-07-14T13:08:46.899Z,7.90
2018-07-14T13:12:20.144Z,7.80
2018-07-14T13:15:53.402Z,6.33
2018-07-14T13:19:26.653Z,7.20
2018-07-14T13:22:59.912Z,6.43
2018-07-14T13:26:33.155Z,6.30
2018-07-14T13:30:06.460Z,6.50
2018-07-14T13:33:39.786Z,6.87
2018-07-14T13:37:13.031Z,6.33
2018-07-14T13:40:46.300Z,6.50
2018-07-14T13:44:19.541Z,5.27
2018-07-14T13:47:52.532Z,7.00
2018-07-14T13:51:25.551Z,6.57
2018-07-14T13:54:58.794Z,6.40
2018-07-14T13:58:32.028Z,6.17
2018-07-14T14:02:05.469Z,7.03
2018-07-14T14:05:39.624Z,6.23
2018-07-14T14:09:12.872Z,6.13
2018-07-14T14:12:46.136Z,5.83
2018-07-14T14:16:19.427Z,6.20
2018-07-14T14:19:52.672Z,7.17
2018-07-14T14:23:25.917Z,5.60
2018-07-14T14:26:59.188Z,6.43
2018-07-14T14:30:32.425Z,7.17
2018-07-14T14:34:05.671Z,7.97
2018-07-14T14:37:38.936Z,6.73
2018-07-14T14:41:12.167Z,7.00
2018-07-14T14:44:45.442Z,6.20
2018-07-14T14:48:18.760Z,5.57
2018-07-14T14:51:52.001Z,6.43
2018-07-14T14:55:25.240Z,6.53
2018-07-14T14:58:58.489Z,5.80
2018-07-14T15:02:31.795Z,10.47
2018-07-14T15:06:05.056Z,6.50
2018-07-14T15:09:38.310Z,9.43
2018-07-14T15:13:11.550Z,20.50
2018-07-14T15:16:44.544Z,18.87
2018-07-14T15:20:17.571Z,14.73
2018-07-14T15:23:50.828Z,14.33
2018-07-14T15:27:23.862Z,11.13
2018-07-14T15:30:57.149Z,21.20
2018-07-14T15:34:30.399Z,6.83
2018-07-14T15:38:03.649Z,7.30
2018-07-14T15:41:36.932Z,5.93
2018-07-14T15:45:10.161Z,11.60
2018-07-14T15:48:43.386Z,7.47
2018-07-14T15:52:16.628Z,7.93
2018-07-14T15:55:49.646Z,16.30
2018-07-14T15:59:22.925Z,8.73
2018-07-14T16:02:55.911Z,8.23
2018-07-14T16:06:28.923Z,7.80
2018-07-14T16:10:02.192Z,12.03
2018-07-14T16:13:35.480Z,8.27
2018-07-14T16:17:09.048Z,7.20
2018-07-14T16:20:42.331Z,7.30
2018-07-14T16:24:15.572Z,7.07
2018-07-14T16:27:48.856Z,5.40
2018-07-14T16:31:22.127Z,11.43
2018-07-14T16:34:55.355Z,8.97
2018-07-14T16:38:28.594Z,7.63
2018-07-14T16:42:01.828Z,5.73
2018-07-14T16:45:35.148Z,7.93
2018-07-14T16:49:08.379Z,9.10
2018-07-14T16:52:41.688Z,7.47
2018-07-14T16:56:14.955Z,8.77
2018-07-14T16:59:48.201Z,7.40
2018-07-14T17:03:21.404Z,9.77
2018-07-14T17:06:54.662Z,11.53
2018-07-14T17:10:27.925Z,11.93
2018-07-14T17:14:01.265Z,7.30
2018-07-14T17:17:34.420Z,9.80
2018-07-14T17:21:07.777Z,6.20
2018-07-14T17:24:41.007Z,11.63
2018-07-14T17:28:14.277Z,6.77
2018-07-14T17:31:47.524Z,7.17
2018-07-14T17:35:20.510Z,7.97
2018-07-14T17:38:53.736Z,9.10
2018-07-14T17:42:27.007Z,8.17
2018-07-14T17:46:00.326Z,7.90
2018-07-14T17:49:33.563Z,10.10
2018-07-14T17:53:06.792Z,7.33
2018-07-14T17:56:40.036Z,8.97
2018-07-14T18:00:13.416Z,7.30
2018-07-14T18:03:46.386Z,6.40
2018-07-14T18:07:19.613Z,7.20
2018-07-14T18:10:53.244Z,7.23
2018-07-14T18:14:26.500Z,6.97
2018-07-14T18:17:59.753Z,8.87
2018-07-14T18:21:33.012Z,8.90
2018-07-14T18:25:06.312Z,8.40
2018-07-14T18:28:39.544Z,8.00
2018-07-14T18:32:12.781Z,8.33
2018-07-14T18:35:46.027Z,9.40
2018-07-14T18:39:19.265Z,8.67
2018-07-14T18:42:52.508Z,8.77
2018-07-14T18:46:25.736Z,8.90
2018-07-14T18:49:59.801Z,11.77
2018-07-14T18:53:33.047Z,8.17
2018-07-14T18:57:06.302Z,8.10
2018-07-14T19:00:39.760Z,8.90
2018-07-14T19:04:12.997Z,9.40
2018-07-14T19:07:46.224Z,9.10
2018-07-14T19:11:19.472Z,9.20
2018-07-14T19:14:52.785Z,10.10
2018-07-14T19:18:26.041Z,8.53
2018-07-14T19:21:59.295Z,9.63
2018-07-14T19:25:32.556Z,9.60
2018-07-14T19:29:05.559Z,11.40
2018-07-14T19:32:38.789Z,10.70
2018-07-14T19:36:12.016Z,9.97
2018-07-14T19:39:45.279Z,11.80
2018-07-14T19:43:19.504Z,10.50
2018-07-14T19:46:52.756Z,12.20
2018-07-14T19:50:26.022Z,11.20
2018-07-14T19:53:59.289Z,11.87
2018-07-14T19:57:32.521Z,11.83
2018-07-14T20:01:06.045Z,11.67
2018-07-14T20:04:39.291Z,12.40
2018-07-14T20:08:12.516Z,10.93
2018-07-14T20:11:45.824Z,12.70
2018-07-14T20:15:19.104Z,12.83
2018-07-14T20:18:52.341Z,13.23
2018-07-14T20:22:25.602Z,12.63
2018-07-14T20:25:58.850Z,12.70
2018-07-14T20:29:32.094Z,13.70
2018-07-14T20:33:05.332Z,13.30
2018-07-14T20:36:38.575Z,15.43
2018-07-14T20:40:11.822Z,13.63
2018-07-14T20:43:45.080Z,14.10
2018-07-14T20:47:18.359Z,14.37
2018-07-14T20:50:51.329Z,15.57
2018-07-14T20:54:24.580Z,13.90
2018-07-14T20:57:57.825Z,14.77
2018-07-14T21:01:31.071Z,19.07
2018-07-14T21:05:04.324Z,16.10
2018-07-14T21:08:37.641Z,15.43
2018-07-14T21:12:10.913Z,15.20
2018-07-14T21:15:44.202Z,14.40
2018-07-14T21:19:17.452Z,14.43
2018-07-14T21:22:50.703Z,12.53
2018-07-14T21:26:23.952Z,13.33
2018-07-14T21:29:57.216Z,13.83
2018-07-14T21:33:30.512Z,15.13
2018-07-14T21:37:03.781Z,14.97
2018-07-14T21:40:37.015Z,14.77
2018-07-14T21:44:10.264Z,16.63
2018-07-14T21:47:43.607Z,15.27
2018-07-14T21:51:16.839Z,14.50
2018-07-14T21:54:50.120Z,12.70
2018-07-14T21:58:23.358Z,15.80
2018-07-14T22:01:56.345Z,15.93
2018-07-14T22:05:29.592Z,15.87
2018-07-14T22:09:02.844Z,16.53
2018-07-14T22:12:36.100Z,15.33
2018-07-14T22:16:09.364Z,16.43
2018-07-14T22:19:42.344Z,15.47
2018-07-14T22:23:15.628Z,13.93
2018-07-14T22:26:48.872Z,16.10
2018-07-14T22:30:22.132Z,16.63
2018-07-14T22:33:55.388Z,16.27
2018-07-14T22:37:28.623Z,15.37
2018-07-14T22:41:01.877Z,15.73
2018-07-14T22:44:35.103Z,14.87
2018-07-14T22:48:08.353Z,16.10
2018-07-14T22:51:41.695Z,15.30
2018-07-14T22:55:14.939Z,15.97
2018-07-14T22:58:48.305Z,17.70
2018-07-14T23:02:21.588Z,19.33
2018-07-14T23:05:54.825Z,17.83
2018-07-14T23:09:28.044Z,14.83
2018-07-14T23:13:01.285Z,16.47
2018-07-14T23:16:34.627Z,16.37
2018-07-14T23:20:07.881Z,16.70
2018-07-14T23:23:41.118Z,17.77
2018-07-14T23:27:14.371Z,16.77
2018-07-14T23:30:47.637Z,17.93
2018-07-14T23:34:20.873Z,19.13
2018-07-14T23:37:54.127Z,18.27
2018-07-14T23:41:27.395Z,19.10
2018-07-14T23:45:00.663Z,17.70
2018-07-14T23:48:33.892Z,18.00
2018-07-14T23:52:07.141Z,20.03
2018-07-14T23:55:40.404Z,19.87
2018-07-14T23:59:13.631Z,19.30
